createdAt,value
2022-08-10T00:01:53.801Z,22.04
2022-08-10T00:04:22.549Z,22.02
2022-08-10T00:06:54.618Z,22.00
2022-08-10T00:09:22.848Z,21.96
2022-08-10T00:11:50.285Z,21.96
2022-08-10T00:14:17.696Z,21.91
2022-08-10T00:16:44.657Z,21.89
2022-08-10T00:19:11.488Z,21.89
2022-08-10T00:21:38.381Z,21.87
2022-08-10T00:24:05.375Z,21.85
2022-08-10T00:27:52.856Z,21.85
2022-08-10T00:29:19.230Z,21.81
2022-08-10T00:31:58.537Z,21.80
2022-08-10T00:34:30.734Z,21.76
2022-08-10T00:36:58.057Z,21.77
2022-08-10T00:39:26.016Z,21.76
2022-08-10T00:42:02.198Z,21.73
2022-08-10T00:44:42.333Z,21.70
2022-08-10T00:47:36.054Z,21.66
2022-08-10T00:49:57.898Z,21.60
2022-08-10T00:52:27.074Z,21.54
2022-08-10T00:54:55.237Z,21.51
2022-08-10T00:57:22.462Z,21.48
2022-08-10T00:59:59.233Z,21.49
2022-08-10T01:02:32.756Z,21.46
2022-08-10T01:05:06.612Z,21.46
2022-08-10T01:08:04.627Z,21.45
2022-08-10T01:10:43.335Z,21.43
2022-08-10T01:13:32.199Z,21.41
2022-08-10T01:16:33.019Z,21.37
2022-08-10T01:19:46.070Z,21.35
2022-08-10T01:22:34.162Z,21.32
2022-08-10T01:25:00.947Z,21.31
2022-08-10T01:27:39.662Z,21.33
2022-08-10T01:30:06.638Z,21.31
2022-08-10T01:32:46.584Z,21.30
2022-08-10T01:35:35.586Z,21.27
2022-08-10T01:38:04.477Z,21.25
2022-08-10T01:40:35.866Z,21.22
2022-08-10T01:43:08.178Z,21.20
2022-08-10T01:45:45.006Z,21.20
2022-08-10T01:48:28.991Z,21.18
2022-08-10T01:51:27.222Z,21.16
2022-08-10T01:54:10.641Z,21.13
2022-08-10T01:56:43.975Z,21.10
2022-08-10T01:59:22.328Z,21.08
2022-08-10T02:01:52.198Z,21.05
2022-08-10T02:04:21.190Z,21.04
2022-08-10T02:06:51.680Z,21.01
2022-08-10T02:09:25.485Z,20.98
2022-08-10T02:12:05.202Z,20.92
2022-08-10T02:14:36.680Z,20.87
2022-08-10T02:17:08.174Z,20.80
2022-08-10T02:19:38.295Z,20.79
2022-08-10T02:22:35.182Z,20.79
2022-08-10T02:24:56.312Z,20.79
2022-08-10T02:27:25.140Z,20.79
2022-08-10T02:29:54.168Z,20.78
2022-08-10T02:32:38.175Z,20.77
2022-08-10T02:35:13.961Z,20.76
2022-08-10T02:37:52.943Z,20.74
2022-08-10T02:45:01.158Z,20.74
2022-08-10T02:45:23.506Z,20.72
2022-08-10T02:46:39.809Z,20.69
2022-08-10T02:49:10.447Z,20.65
2022-08-10T02:52:06.639Z,20.60
2022-08-10T02:54:38.981Z,20.56
2022-08-10T02:57:27.379Z,20.57
2022-08-10T02:59:57.753Z,20.52
2022-08-10T03:02:40.033Z,20.49
2022-08-10T03:05:12.393Z,20.49
2022-08-10T03:08:05.016Z,20.47
2022-08-10T03:10:34.253Z,20.42
2022-08-10T03:13:04.397Z,20.38
2022-08-10T03:15:33.707Z,20.33
2022-08-10T03:18:02.037Z,20.27
2022-08-10T03:20:39.495Z,20.24
2022-08-10T03:23:23.531Z,20.21
2022-08-10T03:25:54.579Z,20.17
2022-08-10T03:28:26.093Z,20.13
2022-08-10T03:30:54.282Z,20.08
2022-08-10T03:33:23.430Z,20.05
2022-08-10T03:36:44.089Z,19.98
2022-08-10T03:38:40.762Z,19.90
2022-08-10T03:41:11.747Z,19.85
2022-08-10T03:43:47.977Z,19.82
2022-08-10T03:46:18.478Z,19.76
2022-08-10T03:48:49.837Z,19.75
2022-08-10T03:51:19.051Z,19.76
2022-08-10T03:54:04.189Z,19.77
2022-08-10T03:56:34.931Z,19.77
2022-08-10T03:59:02.620Z,19.78
2022-08-10T04:02:44.494Z,19.78
2022-08-10T04:04:23.274Z,19.79
2022-08-10T04:06:54.850Z,19.80
2022-08-10T04:09:24.085Z,19.81
2022-08-10T04:11:58.622Z,19.84
2022-08-10T04:14:47.525Z,19.86
2022-08-10T04:17:14.145Z,19.84
2022-08-10T04:19:46.241Z,19.81
2022-08-10T04:22:21.254Z,19.81
2022-08-10T04:24:54.008Z,19.78
2022-08-10T04:27:20.721Z,19.75
2022-08-10T04:29:49.347Z,19.69
2022-08-10T04:32:20.154Z,19.66
2022-08-10T04:34:47.888Z,19.63
2022-08-10T04:37:18.467Z,19.59
2022-08-10T04:39:46.107Z,19.52
2022-08-10T04:42:13.401Z,19.49
2022-08-10T04:44:42.139Z,19.50
2022-08-10T04:47:09.220Z,19.48
2022-08-10T04:49:54.897Z,19.46
2022-08-10T04:52:29.417Z,19.44
2022-08-10T04:54:57.051Z,19.40
2022-08-10T04:57:23.983Z,19.37
2022-08-10T04:59:50.944Z,19.31
2022-08-10T05:02:31.560Z,19.26
2022-08-10T05:04:59.390Z,19.25
2022-08-10T05:07:26.465Z,19.22
2022-08-10T05:10:02.648Z,19.25
2022-08-10T05:12:38.207Z,19.26
2022-08-10T05:15:10.575Z,19.25
2022-08-10T05:17:39.099Z,19.26
2022-08-10T05:20:08.276Z,19.28
2022-08-10T05:22:40.896Z,19.30
2022-08-10T05:25:12.017Z,19.30
2022-08-10T05:27:40.006Z,19.26
2022-08-10T05:30:08.594Z,19.25
2022-08-10T05:32:36.239Z,19.27
2022-08-10T05:35:23.758Z,19.30
2022-08-10T05:38:09.834Z,19.33
2022-08-10T05:40:46.974Z,19.34
2022-08-10T05:43:16.898Z,19.35
2022-08-10T05:46:19.509Z,19.33
2022-08-10T05:48:54.830Z,19.33
2022-08-10T05:51:19.215Z,19.33
2022-08-10T05:54:01.649Z,19.36
2022-08-10T05:56:53.372Z,19.41
2022-08-10T06:00:10.979Z,19.37
2022-08-10T06:02:33.175Z,19.36
2022-08-10T06:04:57.367Z,19.36
2022-08-10T06:07:27.524Z,19.37
2022-08-10T06:09:59.293Z,19.37
2022-08-10T06:12:53.373Z,19.42
2022-08-10T06:15:21.676Z,19.45
2022-08-10T06:18:08.907Z,19.50
2022-08-10T06:20:36.952Z,19.55
2022-08-10T06:23:05.158Z,19.62
2022-08-10T06:26:09.994Z,19.67
2022-08-10T06:28:20.847Z,19.72
2022-08-10T06:30:49.507Z,19.73
2022-08-10T06:33:19.014Z,19.72
2022-08-10T06:35:48.756Z,19.72
2022-08-10T06:38:17.350Z,19.71
2022-08-10T06:40:47.420Z,19.72
2022-08-10T06:43:17.807Z,19.75
2022-08-10T06:46:07.470Z,19.80
2022-08-10T06:48:48.088Z,19.90
2022-08-10T06:51:20.675Z,19.92
2022-08-10T06:53:52.331Z,19.95
2022-08-10T06:56:36.575Z,19.95
2022-08-10T06:59:26.288Z,20.02
2022-08-10T07:02:04.853Z,20.12
2022-08-10T07:04:35.877Z,20.10
2022-08-10T07:07:06.391Z,20.11
2022-08-10T07:09:37.855Z,20.16
2022-08-10T07:12:09.118Z,20.21
2022-08-10T07:14:43.755Z,20.24
2022-08-10T07:17:15.583Z,20.27
2022-08-10T07:19:49.764Z,20.32
2022-08-10T07:23:51.892Z,20.34
2022-08-10T07:25:08.938Z,20.38
2022-08-10T07:27:58.135Z,20.43
2022-08-10T07:30:28.525Z,20.47
2022-08-10T07:32:56.523Z,20.54
2022-08-10T07:35:26.736Z,20.61
2022-08-10T07:37:55.450Z,20.70
2022-08-10T07:40:23.710Z,20.78
2022-08-10T07:42:56.406Z,20.80
2022-08-10T07:45:25.697Z,20.86
2022-08-10T07:48:01.440Z,20.91
2022-08-10T07:50:35.329Z,20.95
2022-08-10T07:53:04.488Z,21.03
2022-08-10T07:56:04.214Z,21.13
2022-08-10T07:58:25.423Z,21.43
2022-08-10T08:00:55.063Z,21.60
2022-08-10T08:03:25.466Z,21.66
2022-08-10T08:05:58.514Z,21.73
2022-08-10T08:08:32.262Z,21.81
2022-08-10T08:11:00.161Z,21.84
2022-08-10T08:13:28.837Z,21.76
2022-08-10T08:16:18.640Z,21.75
2022-08-10T08:18:58.179Z,21.72
2022-08-10T08:24:04.875Z,21.74
2022-08-10T08:24:32.852Z,21.74
2022-08-10T08:27:05.880Z,21.72
2022-08-10T08:29:35.608Z,21.76
2022-08-10T08:32:06.536Z,21.80
2022-08-10T08:34:35.007Z,21.85
2022-08-10T08:37:03.410Z,21.90
2022-08-10T08:39:33.677Z,21.97
2022-08-10T08:42:38.598Z,22.05
2022-08-10T08:45:31.743Z,22.12
2022-08-10T08:48:17.127Z,22.18
2022-08-10T08:51:14.944Z,22.23
2022-08-10T08:54:23.227Z,22.30
2022-08-10T08:57:11.432Z,22.37
2022-08-10T08:59:55.944Z,22.43
2022-08-10T09:02:54.733Z,22.46
2022-08-10T09:05:58.669Z,22.50
2022-08-10T09:09:04.234Z,22.57
2022-08-10T09:11:50.868Z,22.64
2022-08-10T09:14:26.158Z,22.72
2022-08-10T09:17:00.869Z,22.78
2022-08-10T09:19:38.471Z,22.86
2022-08-10T09:22:32.818Z,22.96
2022-08-10T09:25:34.429Z,23.18
2022-08-10T09:28:05.574Z,23.30
2022-08-10T09:36:23.158Z,23.54
2022-08-10T09:37:24.165Z,23.67
2022-08-10T09:40:59.768Z,23.82
2022-08-10T09:43:37.529Z,23.93
2022-08-10T09:46:16.734Z,24.02
2022-08-10T09:48:54.667Z,24.10
2022-08-10T09:51:51.508Z,24.27
2022-08-10T09:54:27.153Z,24.37
2022-08-10T09:57:44.703Z,24.43
2022-08-10T10:00:14.279Z,24.54
2022-08-10T10:02:44.416Z,24.71
2022-08-10T10:05:17.099Z,24.83
2022-08-10T10:07:57.863Z,24.90
2022-08-10T10:10:33.282Z,24.98
2022-08-10T10:13:03.786Z,25.01
2022-08-10T10:15:59.656Z,25.11
2022-08-10T10:18:48.161Z,25.20
2022-08-10T10:21:54.238Z,25.33
2022-08-10T10:24:35.928Z,25.43
2022-08-10T10:27:48.476Z,25.52
2022-08-10T10:30:19.324Z,25.56
2022-08-10T10:33:08.448Z,25.61
2022-08-10T10:35:56.092Z,25.57
2022-08-10T10:38:29.955Z,25.54
2022-08-10T10:41:13.562Z,25.57
2022-08-10T10:44:01.797Z,25.61
2022-08-10T10:46:37.309Z,25.62
2022-08-10T10:49:22.893Z,25.72
2022-08-10T10:52:38.074Z,25.76
2022-08-10T10:55:22.501Z,25.75
2022-08-10T10:58:30.602Z,25.80
2022-08-10T11:01:09.305Z,25.85
2022-08-10T11:03:52.573Z,25.89
2022-08-10T11:06:47.524Z,25.92
2022-08-10T11:10:03.737Z,25.90
2022-08-10T11:12:54.742Z,25.96
2022-08-10T11:15:44.996Z,26.03
2022-08-10T11:18:49.918Z,26.10
2022-08-10T11:21:41.519Z,26.17
2022-08-10T11:24:48.497Z,26.21
2022-08-10T11:27:23.278Z,26.25
2022-08-10T11:29:59.060Z,26.29
2022-08-10T11:33:03.401Z,26.35
2022-08-10T11:36:09.304Z,26.36
2022-08-10T11:38:57.652Z,26.34
2022-08-10T11:42:09.668Z,26.34
2022-08-10T11:44:40.070Z,26.39
2022-08-10T11:47:18.787Z,26.44
2022-08-10T11:50:00.288Z,26.48
2022-08-10T11:53:04.256Z,26.51
2022-08-10T11:55:33.020Z,26.56
2022-08-10T11:58:25.648Z,26.57
2022-08-10T12:00:56.117Z,26.57
2022-08-10T12:03:24.796Z,26.60
2022-08-10T12:05:55.096Z,26.67
2022-08-10T12:10:02.210Z,26.69
2022-08-10T12:11:24.458Z,26.73
2022-08-10T12:14:23.975Z,26.72
2022-08-10T12:16:58.287Z,26.81
2022-08-10T12:19:59.718Z,26.81
2022-08-10T12:22:31.578Z,26.85
2022-08-10T12:25:07.746Z,26.94
2022-08-10T12:27:37.955Z,26.99
2022-08-10T12:30:13.349Z,26.99
2022-08-10T12:32:44.156Z,27.02
2022-08-10T12:35:26.443Z,27.08
2022-08-10T12:38:08.820Z,27.12
2022-08-10T12:40:55.707Z,27.14
2022-08-10T12:44:05.111Z,27.17
2022-08-10T12:46:33.099Z,27.15
2022-08-10T12:49:17.970Z,27.16
2022-08-10T12:52:14.405Z,27.20
2022-08-10T12:54:43.259Z,27.21
2022-08-10T12:57:16.478Z,27.26
2022-08-10T12:59:50.930Z,27.30
2022-08-10T13:02:38.075Z,27.35
2022-08-10T13:05:08.205Z,27.35
2022-08-10T13:08:26.110Z,27.36
2022-08-10T13:10:25.874Z,27.35
2022-08-10T13:12:57.076Z,27.34
2022-08-10T13:15:46.214Z,27.36
2022-08-10T13:18:19.726Z,27.41
2022-08-10T13:20:52.351Z,27.44
2022-08-10T13:23:28.350Z,27.45
2022-08-10T13:25:58.321Z,27.46
2022-08-10T13:28:40.036Z,27.47
2022-08-10T13:31:16.647Z,27.49
2022-08-10T13:34:44.027Z,27.53
2022-08-10T13:36:59.130Z,27.55
2022-08-10T13:39:59.324Z,27.57
2022-08-10T13:42:31.858Z,27.58
2022-08-10T13:45:07.847Z,27.61
2022-08-10T13:47:48.057Z,27.61
2022-08-10T13:50:33.483Z,27.57
2022-08-10T13:53:11.607Z,27.55
2022-08-10T13:55:55.514Z,27.57
2022-08-10T13:58:33.931Z,27.59
2022-08-10T14:01:10.106Z,27.58
2022-08-10T14:03:40.197Z,27.57
2022-08-10T14:06:12.089Z,27.58
2022-08-10T14:08:41.491Z,27.56
2022-08-10T14:11:14.718Z,27.58
2022-08-10T14:13:45.701Z,27.57
2022-08-10T14:16:13.894Z,27.58
2022-08-10T14:18:45.038Z,27.58
2022-08-10T14:21:13.924Z,27.57
2022-08-10T14:23:48.635Z,27.57
2022-08-10T14:26:23.593Z,27.58
2022-08-10T14:28:54.983Z,27.60
2022-08-10T14:31:25.834Z,27.62
2022-08-10T14:33:56.304Z,27.64
2022-08-10T14:36:37.928Z,27.60
2022-08-10T14:39:09.069Z,27.60
2022-08-10T14:42:04.223Z,27.57
2022-08-10T14:44:30.573Z,27.58
2022-08-10T14:47:07.951Z,27.58
2022-08-10T14:49:57.049Z,27.55
2022-08-10T14:52:44.274Z,27.54
2022-08-10T14:55:19.799Z,27.55
2022-08-10T14:58:17.039Z,27.57
2022-08-10T15:00:42.777Z,27.59
2022-08-10T15:04:00.813Z,27.63
2022-08-10T15:06:07.742Z,27.65
2022-08-10T15:08:47.038Z,27.65
2022-08-10T15:12:13.535Z,27.62
2022-08-10T15:14:29.318Z,27.60
2022-08-10T15:16:55.346Z,27.59
2022-08-10T15:20:00.636Z,27.60
2022-08-10T15:22:47.398Z,27.60
2022-08-10T15:25:05.118Z,27.59
2022-08-10T15:27:54.623Z,27.56
2022-08-10T15:30:33.144Z,27.58
2022-08-10T15:33:56.886Z,27.57
2022-08-10T15:36:33.605Z,27.56
2022-08-10T15:39:03.299Z,27.56
2022-08-10T15:41:58.404Z,27.52
2022-08-10T15:44:43.251Z,27.51
2022-08-10T15:47:34.791Z,27.51
2022-08-10T15:50:24.869Z,27.46
2022-08-10T15:53:07.290Z,27.46
2022-08-10T15:55:51.798Z,27.47
2022-08-10T15:58:39.368Z,27.48
2022-08-10T16:02:12.944Z,27.47
2022-08-10T16:04:32.320Z,27.48
2022-08-10T16:07:06.342Z,27.48
2022-08-10T16:10:10.554Z,27.48
2022-08-10T16:12:39.359Z,27.47
2022-08-10T16:15:11.285Z,27.44
2022-08-10T16:18:02.208Z,27.42
2022-08-10T16:20:53.407Z,27.42
2022-08-10T16:23:34.993Z,27.42
2022-08-10T16:26:14.829Z,27.41
2022-08-10T16:28:56.726Z,27.42
2022-08-10T16:31:26.040Z,27.41
2022-08-10T16:33:55.968Z,27.40
2022-08-10T16:36:32.397Z,27.41
2022-08-10T16:39:00.182Z,27.39
2022-08-10T16:42:04.154Z,27.39
2022-08-10T16:44:18.747Z,27.41
2022-08-10T16:46:47.725Z,27.40
2022-08-10T16:49:18.120Z,27.38
2022-08-10T16:51:50.479Z,27.44
2022-08-10T16:54:26.334Z,27.43
2022-08-10T16:56:59.468Z,27.39
2022-08-10T16:59:30.844Z,27.38
2022-08-10T17:02:01.979Z,27.35
2022-08-10T17:04:31.811Z,27.32
2022-08-10T17:07:02.406Z,27.31
2022-08-10T17:09:34.524Z,27.32
2022-08-10T17:12:13.709Z,27.29
2022-08-10T17:14:42.003Z,27.26
2022-08-10T17:17:14.073Z,27.24
2022-08-10T17:19:45.227Z,27.23
2022-08-10T17:22:19.414Z,27.20
2022-08-10T17:25:04.274Z,27.19
2022-08-10T17:28:32.948Z,27.19
2022-08-10T17:30:34.042Z,27.19
2022-08-10T17:33:14.927Z,27.19
2022-08-10T17:35:45.731Z,27.16
2022-08-10T17:38:22.950Z,27.16
2022-08-10T17:41:08.109Z,27.13
2022-08-10T17:43:46.093Z,27.11
2022-08-10T17:46:26.511Z,27.09
2022-08-10T17:48:55.034Z,27.06
2022-08-10T17:51:28.721Z,27.05
2022-08-10T17:53:58.604Z,27.02
2022-08-10T17:56:26.394Z,27.03
2022-08-10T17:58:58.193Z,27.02
2022-08-10T18:01:41.842Z,26.99
2022-08-10T18:04:19.410Z,26.93
2022-08-10T18:06:56.754Z,26.91
2022-08-10T18:09:47.871Z,26.85
2022-08-10T18:12:19.194Z,26.82
2022-08-10T18:14:50.300Z,26.81
2022-08-10T18:17:48.474Z,26.80
2022-08-10T18:20:19.882Z,26.76
2022-08-10T18:22:50.576Z,26.71
2022-08-10T18:25:32.244Z,26.68
2022-08-10T18:28:05.051Z,26.64
2022-08-10T18:30:37.038Z,26.59
2022-08-10T18:33:10.965Z,26.55
2022-08-10T18:35:39.856Z,26.53
2022-08-10T18:38:08.262Z,26.51
2022-08-10T18:40:38.866Z,26.49
2022-08-10T18:44:07.003Z,26.47
2022-08-10T18:46:00.126Z,26.43
2022-08-10T18:48:37.374Z,26.38
2022-08-10T18:51:06.326Z,26.34
2022-08-10T18:53:37.554Z,26.30
2022-08-10T18:56:22.995Z,26.26
2022-08-10T18:59:27.123Z,26.24
2022-08-10T19:02:15.119Z,26.18
2022-08-10T19:04:48.094Z,26.14
2022-08-10T19:07:51.329Z,26.11
2022-08-10T19:10:57.862Z,26.06
2022-08-10T19:13:53.869Z,26.04
2022-08-10T19:16:26.978Z,26.00
2022-08-10T19:19:25.914Z,25.97
2022-08-10T19:22:03.770Z,25.94
2022-08-10T19:24:46.430Z,25.91
2022-08-10T19:27:32.001Z,25.88
2022-08-10T19:30:13.698Z,25.83
2022-08-10T19:33:02.678Z,25.80
2022-08-10T19:35:29.777Z,25.78
2022-08-10T19:38:32.041Z,25.76
2022-08-10T19:41:32.162Z,25.71
2022-08-10T19:44:34.227Z,25.67
2022-08-10T19:47:43.230Z,25.62
2022-08-10T19:50:42.238Z,25.58
2022-08-10T19:54:00.865Z,25.57
2022-08-10T19:56:40.147Z,25.56
2022-08-10T20:00:16.311Z,25.55
2022-08-10T20:02:30.034Z,25.53
2022-08-10T20:05:11.806Z,25.48
2022-08-10T20:07:47.578Z,25.45
2022-08-10T20:10:47.033Z,25.43
2022-08-10T20:13:37.654Z,25.40
2022-08-10T20:16:11.935Z,25.38
2022-08-10T20:18:49.312Z,25.37
2022-08-10T20:21:25.978Z,25.35
2022-08-10T20:24:01.538Z,25.34
2022-08-10T20:26:36.012Z,25.34
2022-08-10T20:29:57.138Z,25.32
2022-08-10T20:32:13.065Z,25.30
2022-08-10T20:34:53.369Z,25.27
2022-08-10T20:37:45.005Z,25.26
2022-08-10T20:40:25.606Z,25.24
2022-08-10T20:43:14.612Z,25.19
2022-08-10T20:46:09.380Z,25.17
2022-08-10T20:49:16.216Z,25.17
2022-08-10T20:51:58.384Z,25.14
2022-08-10T20:54:34.546Z,25.12
2022-08-10T20:57:55.608Z,25.10
2022-08-10T21:00:24.030Z,25.05
2022-08-10T21:03:07.570Z,25.02
2022-08-10T21:06:06.728Z,24.99
2022-08-10T21:08:45.576Z,24.95
2022-08-10T21:11:37.493Z,24.91
2022-08-10T21:14:43.838Z,24.88
2022-08-10T21:17:41.306Z,24.81
2022-08-10T21:23:15.335Z,24.73
2022-08-10T21:26:08.638Z,24.69
2022-08-10T21:28:44.783Z,24.66
2022-08-10T21:31:50.485Z,24.65
2022-08-10T21:34:52.145Z,24.62
2022-08-10T21:37:40.188Z,24.61
2022-08-10T21:40:36.103Z,24.59
2022-08-10T21:43:59.514Z,24.58
2022-08-10T21:47:07.582Z,24.53
2022-08-10T21:50:03.998Z,24.50
2022-08-10T21:53:43.904Z,24.47
2022-08-10T21:56:44.249Z,24.41
2022-08-10T21:59:58.814Z,24.39
2022-08-10T22:02:54.621Z,24.36
2022-08-10T22:05:49.290Z,24.31
2022-08-10T22:08:56.798Z,24.22
2022-08-10T22:11:47.632Z,24.21
2022-08-10T22:14:42.588Z,24.21
2022-08-10T22:17:59.401Z,24.19
2022-08-10T22:20:50.447Z,24.16
2022-08-10T22:23:41.775Z,24.13
2022-08-10T22:27:00.591Z,24.08
2022-08-10T22:31:28.919Z,24.76
2022-08-10T22:33:38.776Z,24.02
2022-08-10T22:36:46.561Z,23.98
2022-08-10T22:40:05.791Z,23.91
2022-08-10T22:43:11.036Z,23.85
2022-08-10T22:46:29.811Z,23.84
2022-08-10T22:49:01.986Z,23.81
2022-08-10T22:51:52.928Z,23.77
2022-08-10T22:54:58.389Z,23.75
2022-08-10T22:57:44.410Z,23.72
2022-08-10T23:00:19.763Z,23.69
2022-08-10T23:03:11.111Z,23.65
2022-08-10T23:06:04.441Z,23.65
2022-08-10T23:08:43.448Z,23.65
2022-08-10T23:11:23.399Z,23.64
2022-08-10T23:13:59.026Z,23.66
2022-08-10T23:16:47.555Z,23.66
2022-08-10T23:19:26.638Z,23.65
2022-08-10T23:22:02.989Z,23.61
2022-08-10T23:24:44.420Z,23.61
2022-08-10T23:27:37.323Z,23.56
2022-08-10T23:30:10.761Z,23.54
2022-08-10T23:32:46.435Z,23.53
2022-08-10T23:36:29.521Z,23.52
2022-08-10T23:38:11.271Z,23.50
2022-08-10T23:40:44.035Z,23.47
2022-08-10T23:43:19.217Z,23.43
2022-08-10T23:45:54.428Z,23.40
2022-08-10T23:48:28.248Z,23.40
2022-08-10T23:50:59.551Z,23.39
2022-08-10T23:53:39.028Z,23.37
2022-08-10T23:56:22.778Z,23.34
2022-08-10T23:59:00.216Z,23.30
